LOWW/VIE METAR and TAF weather

Enter ICAO airport designator
Station Type Date Time Source
LOWW METAR 2020/09/23 18:50 UTC NOAA

LOWW 231850Z 16005KT 9999 FEW044 FEW045CB 17/15 Q1008 NOSIG


Station Type Date Time Source
LOWW Decoded METAR 2020/09/23 18:50 UTC NOAA

Wien / Schwechat-Flughafen, Austria (LOWW) 48-07N 016-34E 190M
Sep 23, 2020 - 02:50 PM EDT / 2020.09.23 1850 UTC
Wind: from the SSE (160 degrees) at 6 MPH (5 KT):0
Visibility: greater than 7 mile(s):0
Sky conditions: mostly clear
Weather: Cumulonimbus clouds observed
Temperature: 62 F (17 C)
Dew Point: 59 F (15 C)
Relative Humidity: 88%
Pressure (altimeter): 29.77 in. Hg (1008 hPa)
ob: LOWW 231850Z 16005KT 9999 FEW044 FEW045CB 17/15 Q1008 NOSIG
cycle: 19

Station Type Date Time Source
LOWW TAF 2020/09/23 18:18 UTC NOAA

TAF LOWW 231715Z 2318/2424 20005KT CAVOK TX25/2414Z TN14/2405Z
TEMPO 2318/2320 -SHRA FEW040CB BKN050
BECMG 2400/2403 2000 BCFG PROB30
TEMPO 2403/2406 0300 FG BKN002
BECMG 2407/2409 CAVOK
BECMG 2413/2415 15008KT

Example: see airport list